createdAt,value
2018-05-07T00:01:47.425Z,51.20
2018-05-07T00:04:15.628Z,51.20
2018-05-07T00:06:43.091Z,51.10
2018-05-07T00:09:10.526Z,51.40
2018-05-07T00:11:38.069Z,51.60
2018-05-07T00:14:05.459Z,51.80
2018-05-07T00:16:32.919Z,52.20
2018-05-07T00:19:00.380Z,52.40
2018-05-07T00:21:27.829Z,52.20
2018-05-07T00:23:55.289Z,52.50
2018-05-07T00:26:22.689Z,52.50
2018-05-07T00:28:50.870Z,52.90
2018-05-07T00:31:18.373Z,52.90
2018-05-07T00:33:45.828Z,52.80
2018-05-07T00:36:13.241Z,52.80
2018-05-07T00:38:41.171Z,52.60
2018-05-07T00:41:08.608Z,52.80
2018-05-07T00:43:36.071Z,53.20
2018-05-07T00:46:03.477Z,53.30
2018-05-07T00:48:30.882Z,53.20
2018-05-07T00:50:58.288Z,53.20
2018-05-07T00:53:25.793Z,53.20
2018-05-07T00:55:53.248Z,53.00
2018-05-07T00:58:20.652Z,52.80
2018-05-07T01:00:48.166Z,52.80
2018-05-07T01:03:15.621Z,53.00
2018-05-07T01:05:43.083Z,53.20
2018-05-07T01:08:10.545Z,53.30
2018-05-07T01:10:37.948Z,53.40
2018-05-07T01:13:05.447Z,53.40
2018-05-07T01:15:32.849Z,53.90
2018-05-07T01:18:00.360Z,53.60
2018-05-07T01:20:27.816Z,53.60
2018-05-07T01:22:55.278Z,53.60
2018-05-07T01:25:22.736Z,53.80
2018-05-07T01:27:50.187Z,53.80
2018-05-07T01:30:17.589Z,53.50
2018-05-07T01:32:45.100Z,53.50
2018-05-07T01:35:12.509Z,53.50
2018-05-07T01:37:39.908Z,53.50
2018-05-07T01:40:07.375Z,53.50
2018-05-07T01:42:34.777Z,53.80
2018-05-07T01:45:02.281Z,53.70
2018-05-07T01:47:29.688Z,53.80
2018-05-07T01:49:57.203Z,53.60
2018-05-07T01:52:24.652Z,53.40
2018-05-07T01:54:52.058Z,53.50
2018-05-07T01:57:19.573Z,53.40
2018-05-07T01:59:46.985Z,53.60
2018-05-07T02:02:14.389Z,53.70
2018-05-07T02:04:41.836Z,54.00
2018-05-07T02:07:09.300Z,53.80
2018-05-07T02:09:36.816Z,53.90
2018-05-07T02:12:05.034Z,53.60
2018-05-07T02:14:32.441Z,53.50
2018-05-07T02:16:59.945Z,53.60
2018-05-07T02:19:27.396Z,53.70
2018-05-07T02:21:54.859Z,53.90
2018-05-07T02:24:22.313Z,53.90
2018-05-07T02:26:49.720Z,54.00
2018-05-07T02:29:17.225Z,54.00
2018-05-07T02:31:44.728Z,54.40
2018-05-07T02:34:12.155Z,54.30
2018-05-07T02:36:39.645Z,53.80
2018-05-07T02:39:07.954Z,53.60
2018-05-07T02:41:36.160Z,54.00
2018-05-07T02:44:03.641Z,54.00
2018-05-07T02:46:31.212Z,54.10
2018-05-07T02:48:58.666Z,54.00
2018-05-07T02:51:26.104Z,54.20
2018-05-07T02:53:53.558Z,54.10
2018-05-07T02:56:21.030Z,54.00
2018-05-07T02:58:48.463Z,54.10
2018-05-07T03:01:15.906Z,54.30
2018-05-07T03:03:43.342Z,54.30
2018-05-07T03:06:11.559Z,53.90
2018-05-07T03:08:38.994Z,53.80
2018-05-07T03:11:06.494Z,53.70
2018-05-07T03:13:33.944Z,53.80
2018-05-07T03:16:01.384Z,54.20
2018-05-07T03:18:28.858Z,54.00
2018-05-07T03:20:56.302Z,53.80
2018-05-07T03:23:23.729Z,53.80
2018-05-07T03:25:51.240Z,53.70
2018-05-07T03:28:18.679Z,53.80
2018-05-07T03:30:46.115Z,53.80
2018-05-07T03:33:13.606Z,53.80
2018-05-07T03:35:41.054Z,54.00
2018-05-07T03:38:08.514Z,54.20
2018-05-07T03:40:35.996Z,54.20
2018-05-07T03:43:03.429Z,54.10
2018-05-07T03:45:30.887Z,54.10
2018-05-07T03:47:58.342Z,54.20
2018-05-07T03:50:26.138Z,54.20
2018-05-07T03:52:53.662Z,54.20
2018-05-07T03:55:21.127Z,54.50
2018-05-07T03:57:48.554Z,54.10
2018-05-07T04:00:15.988Z,53.90
2018-05-07T04:02:44.211Z,54.00
2018-05-07T04:05:11.665Z,54.00
2018-05-07T04:07:39.098Z,53.90
2018-05-07T04:10:06.537Z,53.80
2018-05-07T04:12:33.968Z,53.90
2018-05-07T04:15:01.411Z,54.00
2018-05-07T04:17:40.629Z,54.30
2018-05-07T04:20:20.062Z,54.20
2018-05-07T04:22:59.400Z,54.20
2018-05-07T04:25:26.838Z,54.20
2018-05-07T04:27:54.260Z,54.20
2018-05-07T04:30:22.486Z,54.80
2018-05-07T04:32:50.050Z,54.70
2018-05-07T04:35:17.507Z,54.60
2018-05-07T04:37:44.938Z,54.60
2018-05-07T04:40:12.373Z,54.70
2018-05-07T04:42:39.804Z,54.60
2018-05-07T04:45:07.339Z,54.80
2018-05-07T04:47:34.773Z,55.10
2018-05-07T04:50:02.214Z,55.00
2018-05-07T04:52:29.710Z,54.80
2018-05-07T04:54:57.253Z,55.60
2018-05-07T04:57:24.714Z,55.60
2018-05-07T04:59:52.148Z,56.20
2018-05-07T05:02:19.630Z,56.20
2018-05-07T05:04:47.058Z,56.10
2018-05-07T05:07:14.583Z,55.80
2018-05-07T05:09:41.982Z,55.70
2018-05-07T05:12:09.422Z,56.00
2018-05-07T05:14:36.911Z,56.20
2018-05-07T05:17:04.369Z,56.20
2018-05-07T05:19:31.803Z,56.30
2018-05-07T05:21:59.282Z,56.50
2018-05-07T05:24:26.726Z,56.50
2018-05-07T05:26:54.166Z,56.00
2018-05-07T05:29:21.654Z,55.50
2018-05-07T05:31:49.109Z,55.00
2018-05-07T05:34:16.554Z,54.50
2018-05-07T05:36:44.022Z,54.70
2018-05-07T05:39:11.455Z,53.80
2018-05-07T05:41:38.939Z,54.40
2018-05-07T05:44:06.374Z,54.00
2018-05-07T05:46:33.966Z,53.60
2018-05-07T05:49:01.513Z,53.40
2018-05-07T05:51:28.949Z,53.40
2018-05-07T05:53:56.382Z,53.20
2018-05-07T05:56:24.677Z,53.00
2018-05-07T05:58:52.047Z,53.00
2018-05-07T06:01:19.482Z,53.00
2018-05-07T06:03:47.002Z,52.30
2018-05-07T06:06:14.860Z,52.80
2018-05-07T06:08:42.298Z,52.20
2018-05-07T06:11:09.754Z,52.20
2018-05-07T06:13:37.219Z,52.40
2018-05-07T06:16:04.771Z,52.60
2018-05-07T06:18:32.207Z,51.90
2018-05-07T06:20:59.683Z,52.40
2018-05-07T06:23:27.131Z,53.00
2018-05-07T06:25:54.563Z,52.40
2018-05-07T06:28:21.998Z,52.10
2018-05-07T06:30:50.231Z,51.90
2018-05-07T06:33:17.681Z,51.80
2018-05-07T06:35:45.110Z,51.20
2018-05-07T06:38:12.603Z,51.00
2018-05-07T06:40:40.091Z,51.90
2018-05-07T06:43:07.615Z,52.20
2018-05-07T06:45:35.074Z,51.70
2018-05-07T06:48:02.535Z,51.80
2018-05-07T06:50:29.983Z,51.40
2018-05-07T06:52:57.554Z,51.20
2018-05-07T06:55:24.984Z,51.00
2018-05-07T06:57:52.411Z,51.00
2018-05-07T07:00:20.634Z,51.40
2018-05-07T07:02:48.221Z,51.40
2018-05-07T07:05:15.638Z,51.10
2018-05-07T07:07:43.106Z,51.30
2018-05-07T07:10:10.539Z,51.70
2018-05-07T07:12:37.975Z,51.40
2018-05-07T07:15:06.183Z,51.70
2018-05-07T07:17:33.618Z,51.70
2018-05-07T07:20:01.077Z,51.40
2018-05-07T07:22:29.053Z,51.80
2018-05-07T07:24:56.482Z,51.40
2018-05-07T07:27:24.693Z,51.80
2018-05-07T07:32:15.231Z,52.00
2018-05-07T07:34:42.662Z,51.80
2018-05-07T07:37:10.126Z,51.60
2018-05-07T07:39:37.592Z,51.80
2018-05-07T07:42:05.041Z,51.70
2018-05-07T07:44:32.503Z,51.80
2018-05-07T07:46:59.960Z,52.20
2018-05-07T07:49:27.413Z,52.10
2018-05-07T07:51:54.870Z,52.00
2018-05-07T07:54:22.434Z,52.10
2018-05-07T07:56:49.875Z,52.30
2018-05-07T07:59:18.295Z,52.70
2018-05-07T08:01:45.722Z,52.70
2018-05-07T08:04:13.172Z,52.90
2018-05-07T08:06:40.597Z,53.00
2018-05-07T08:09:08.026Z,53.30
2018-05-07T08:11:35.550Z,53.50
2018-05-07T08:14:03.206Z,53.50
2018-05-07T08:16:30.792Z,53.30
2018-05-07T08:18:58.218Z,53.40
2018-05-07T08:21:25.686Z,53.80
2018-05-07T08:23:53.130Z,53.70
2018-05-07T08:26:20.566Z,53.80
2018-05-07T08:28:48.058Z,54.00
2018-05-07T08:31:15.496Z,54.00
2018-05-07T08:33:43.080Z,54.10
2018-05-07T08:36:10.518Z,54.20
2018-05-07T08:38:37.954Z,54.20
2018-05-07T08:41:05.441Z,54.40
2018-05-07T08:43:32.897Z,54.50
2018-05-07T08:46:00.438Z,54.30
2018-05-07T08:48:27.918Z,54.40
2018-05-07T08:50:55.400Z,54.30
2018-05-07T08:53:22.834Z,54.20
2018-05-07T08:55:50.285Z,54.30
2018-05-07T08:58:17.757Z,54.50
2018-05-07T09:00:45.406Z,54.20
2018-05-07T09:03:12.854Z,54.20
2018-05-07T09:05:40.296Z,54.20
2018-05-07T09:08:07.913Z,54.20
2018-05-07T09:10:35.930Z,54.40
2018-05-07T09:13:03.416Z,54.40
2018-05-07T09:15:30.833Z,54.10
2018-05-07T09:17:58.326Z,54.20
2018-05-07T09:20:25.774Z,53.80
2018-05-07T09:22:53.339Z,53.40
2018-05-07T09:25:20.798Z,53.50
2018-05-07T09:27:48.231Z,53.10
2018-05-07T09:30:15.714Z,52.90
2018-05-07T09:32:43.167Z,53.10
2018-05-07T09:35:10.598Z,53.00
2018-05-07T09:37:38.031Z,53.30
2018-05-07T09:40:06.251Z,53.70
2018-05-07T09:42:33.682Z,53.60
2018-05-07T09:45:01.166Z,53.30
2018-05-07T09:47:28.610Z,53.20
2018-05-07T09:49:56.087Z,53.10
2018-05-07T09:52:23.534Z,52.90
2018-05-07T09:54:50.994Z,52.70
2018-05-07T09:57:18.449Z,52.80
2018-05-07T09:59:45.891Z,53.00
2018-05-07T10:02:13.368Z,53.20
2018-05-07T10:04:40.789Z,53.10
2018-05-07T10:07:08.278Z,53.00
2018-05-07T10:09:35.734Z,52.80
2018-05-07T10:12:03.190Z,52.80
2018-05-07T10:14:30.650Z,52.70
2018-05-07T10:16:58.172Z,52.90
2018-05-07T10:19:25.563Z,52.70
2018-05-07T10:21:52.992Z,52.50
2018-05-07T10:24:20.426Z,52.30
2018-05-07T10:26:48.634Z,52.00
2018-05-07T10:29:16.069Z,52.00
2018-05-07T10:31:43.562Z,52.30
2018-05-07T10:34:11.023Z,52.30
2018-05-07T10:36:38.457Z,52.60
2018-05-07T10:39:05.930Z,52.50
2018-05-07T10:41:33.389Z,52.40
2018-05-07T10:44:00.825Z,52.10
2018-05-07T10:46:28.258Z,52.10
2018-05-07T10:48:56.458Z,52.10
2018-05-07T10:51:23.937Z,52.10
2018-05-07T10:53:51.392Z,52.20
2018-05-07T10:56:18.838Z,51.80
2018-05-07T10:58:46.269Z,51.90
2018-05-07T11:01:14.499Z,51.90
2018-05-07T11:03:41.950Z,51.70
2018-05-07T11:06:09.406Z,51.50
2018-05-07T11:08:36.853Z,51.60
2018-05-07T11:11:04.373Z,51.40
2018-05-07T11:13:31.767Z,51.40
2018-05-07T11:15:59.194Z,51.60
2018-05-07T11:18:26.627Z,51.80
2018-05-07T11:20:54.867Z,52.50
2018-05-07T11:23:22.297Z,52.10
2018-05-07T11:25:49.777Z,51.80
2018-05-07T11:28:17.238Z,51.70
2018-05-07T11:30:44.678Z,51.60
2018-05-07T11:33:12.158Z,51.30
2018-05-07T11:35:39.708Z,51.00
2018-05-07T11:38:07.158Z,51.10
2018-05-07T11:40:34.593Z,50.80
2018-05-07T11:43:02.074Z,50.90
2018-05-07T11:45:29.533Z,50.90
2018-05-07T11:47:56.974Z,51.10
2018-05-07T11:50:24.414Z,51.00
2018-05-07T11:52:51.925Z,51.60
2018-05-07T11:55:19.368Z,50.80
2018-05-07T11:57:46.796Z,50.90
2018-05-07T12:00:14.229Z,50.40
2018-05-07T12:02:42.461Z,50.90
2018-05-07T12:05:09.888Z,50.90
2018-05-07T12:07:37.362Z,51.00
2018-05-07T12:10:04.818Z,50.90
2018-05-07T12:12:32.250Z,50.80
2018-05-07T12:14:59.690Z,50.50
2018-05-07T12:17:27.118Z,50.40
2018-05-07T12:19:54.646Z,50.10
2018-05-07T12:22:22.078Z,49.70
2018-05-07T12:24:49.568Z,50.10
2018-05-07T12:27:17.027Z,50.10
2018-05-07T12:29:44.479Z,50.20
2018-05-07T12:32:11.919Z,50.60
2018-05-07T12:34:39.354Z,50.60
2018-05-07T12:37:06.846Z,50.40
2018-05-07T12:39:34.302Z,50.20
2018-05-07T12:42:01.732Z,49.90
2018-05-07T12:44:29.215Z,49.50
2018-05-07T12:46:56.653Z,49.80
2018-05-07T12:49:24.098Z,49.70
2018-05-07T12:51:51.586Z,49.60
2018-05-07T12:54:19.042Z,49.80
2018-05-07T12:56:46.506Z,50.00
2018-05-07T12:59:13.938Z,49.80
2018-05-07T13:01:41.415Z,49.30
2018-05-07T13:04:08.875Z,49.20
2018-05-07T13:06:36.311Z,49.40
2018-05-07T13:09:03.746Z,49.30
2018-05-07T13:11:31.202Z,50.00
2018-05-07T13:13:59.385Z,49.50
2018-05-07T13:16:26.873Z,49.40
2018-05-07T13:18:54.370Z,49.40
2018-05-07T13:21:22.606Z,49.10
2018-05-07T13:23:50.055Z,49.00
2018-05-07T13:26:17.518Z,49.00
2018-05-07T13:28:44.967Z,49.10
2018-05-07T13:31:12.434Z,49.20
2018-05-07T13:33:39.869Z,49.10
2018-05-07T13:36:07.298Z,48.80
2018-05-07T13:38:35.517Z,49.40
2018-05-07T13:41:02.977Z,49.40
2018-05-07T13:43:30.446Z,49.20
2018-05-07T13:45:57.889Z,48.90
2018-05-07T13:48:25.631Z,48.90
2018-05-07T13:50:53.067Z,48.70
2018-05-07T13:53:21.278Z,49.00
2018-05-07T13:55:48.727Z,48.90
2018-05-07T13:58:16.198Z,49.10
2018-05-07T14:00:43.658Z,48.90
2018-05-07T14:03:11.086Z,48.80
2018-05-07T14:05:38.565Z,48.60
2018-05-07T14:08:06.012Z,48.80
2018-05-07T14:10:33.439Z,48.80
2018-05-07T14:13:00.940Z,49.10
2018-05-07T14:15:28.367Z,48.90
2018-05-07T14:17:55.854Z,48.60
2018-05-07T14:20:23.298Z,48.30
2018-05-07T14:22:50.767Z,48.20
2018-05-07T14:25:18.206Z,48.00
2018-05-07T14:27:45.689Z,47.50
2018-05-07T14:30:13.130Z,47.70
2018-05-07T14:32:40.558Z,48.00
2018-05-07T14:35:07.994Z,48.10
2018-05-07T14:37:36.425Z,48.10
2018-05-07T14:40:03.865Z,48.10
2018-05-07T14:42:31.294Z,47.90
2018-05-07T14:44:59.506Z,46.60
2018-05-07T14:47:26.974Z,46.60
2018-05-07T14:49:54.429Z,46.90
2018-05-07T14:52:21.889Z,46.90
2018-05-07T14:54:49.318Z,46.40
2018-05-07T14:57:16.760Z,46.50
2018-05-07T14:59:44.670Z,46.40
2018-05-07T15:02:12.114Z,46.40
2018-05-07T15:04:39.554Z,46.20
2018-05-07T15:07:07.062Z,45.90
2018-05-07T15:09:34.508Z,46.70
2018-05-07T15:12:02.059Z,45.80
2018-05-07T15:14:29.510Z,45.90
2018-05-07T15:16:56.946Z,45.70
2018-05-07T15:19:24.393Z,45.60
2018-05-07T15:21:51.818Z,45.50
2018-05-07T15:24:19.346Z,45.30
2018-05-07T15:26:46.779Z,45.80
2018-05-07T15:29:14.243Z,45.50
2018-05-07T15:31:41.662Z,45.60
2018-05-07T15:34:09.890Z,45.30
2018-05-07T15:36:37.860Z,45.30
2018-05-07T15:39:05.296Z,45.20
2018-05-07T15:41:32.722Z,45.20
2018-05-07T15:44:00.181Z,45.50
2018-05-07T15:46:28.502Z,45.20
2018-05-07T15:48:56.050Z,45.20
2018-05-07T15:51:23.483Z,44.90
2018-05-07T15:53:50.918Z,44.80
2018-05-07T15:56:19.119Z,44.80
2018-05-07T15:58:46.602Z,44.70
2018-05-07T16:01:14.038Z,44.80
2018-05-07T16:03:41.523Z,45.10
2018-05-07T16:06:09.547Z,45.30
2018-05-07T16:08:37.772Z,45.30
2018-05-07T16:11:05.210Z,45.30
2018-05-07T16:13:32.657Z,45.20
2018-05-07T16:16:00.129Z,45.40
2018-05-07T16:18:27.610Z,45.10
2018-05-07T16:20:55.090Z,45.10
2018-05-07T16:23:22.647Z,45.20
2018-05-07T16:25:49.997Z,45.20
2018-05-07T16:28:18.239Z,45.10
2018-05-07T16:30:46.399Z,45.20
2018-05-07T16:33:13.848Z,45.10
2018-05-07T16:35:41.353Z,45.00
2018-05-07T16:38:08.726Z,45.10
2018-05-07T16:40:37.156Z,45.20
2018-05-07T16:43:04.591Z,45.20
2018-05-07T16:45:32.027Z,45.50
2018-05-07T16:47:59.530Z,45.50
2018-05-07T16:50:26.987Z,45.20
2018-05-07T16:52:54.425Z,45.00
2018-05-07T16:55:21.862Z,44.90
2018-05-07T16:57:49.303Z,45.10
2018-05-07T17:00:17.513Z,44.90
2018-05-07T17:02:44.949Z,44.90
2018-05-07T17:05:12.390Z,44.60
2018-05-07T17:07:40.585Z,44.70
2018-05-07T17:10:08.023Z,44.70
2018-05-07T17:12:36.226Z,44.70
2018-05-07T17:15:03.665Z,44.70
2018-05-07T17:17:31.163Z,44.60
2018-05-07T17:19:58.602Z,44.70
2018-05-07T17:22:26.058Z,44.50
2018-05-07T17:24:54.457Z,44.50
2018-05-07T17:27:21.878Z,44.60
2018-05-07T17:29:49.334Z,44.60
2018-05-07T17:32:16.817Z,44.60
2018-05-07T17:34:44.239Z,45.10
2018-05-07T17:37:11.695Z,45.10
2018-05-07T17:39:39.122Z,45.30
2018-05-07T17:42:06.549Z,45.50
2018-05-07T17:44:45.725Z,45.70
2018-05-07T17:47:25.731Z,45.60
2018-05-07T17:49:53.168Z,45.50
2018-05-07T17:52:20.594Z,45.50
2018-05-07T17:54:48.798Z,46.00
2018-05-07T17:57:16.230Z,46.00
2018-05-07T17:59:44.430Z,46.40
2018-05-07T18:02:11.863Z,46.40
2018-05-07T18:04:39.298Z,46.70
2018-05-07T18:07:07.494Z,47.00
2018-05-07T18:09:34.926Z,47.00
2018-05-07T18:12:02.354Z,47.10
2018-05-07T18:14:29.806Z,47.10
2018-05-07T18:16:57.242Z,47.90
2018-05-07T18:19:24.671Z,47.60
2018-05-07T18:21:52.872Z,48.30
2018-05-07T18:24:20.302Z,48.20
2018-05-07T18:26:48.513Z,48.80
2018-05-07T18:29:15.932Z,48.80
2018-05-07T18:31:44.146Z,49.50
2018-05-07T18:34:11.589Z,49.50
2018-05-07T18:36:39.025Z,49.60
2018-05-07T18:39:07.222Z,50.70
2018-05-07T18:41:34.654Z,50.10
2018-05-07T18:44:02.104Z,50.20
2018-05-07T18:46:30.285Z,50.50
2018-05-07T18:48:57.730Z,50.40
2018-05-07T18:51:25.926Z,50.80
2018-05-07T18:53:53.419Z,50.80
2018-05-07T18:56:20.857Z,50.90
2018-05-07T18:58:48.290Z,50.90
2018-05-07T19:01:15.722Z,51.10
2018-05-07T19:03:43.920Z,51.50
2018-05-07T19:06:11.358Z,51.50
2018-05-07T19:08:39.554Z,51.60
2018-05-07T19:11:06.986Z,51.60
2018-05-07T19:13:35.183Z,51.60
2018-05-07T19:16:02.622Z,51.60
2018-05-07T19:18:30.820Z,51.60
2018-05-07T19:20:58.258Z,51.60
2018-05-07T19:23:26.455Z,51.80
2018-05-07T19:25:53.918Z,51.80
2018-05-07T19:28:21.347Z,51.90
2018-05-07T19:30:49.550Z,51.80
2018-05-07T19:33:17.008Z,51.70
2018-05-07T19:35:44.432Z,51.80
2018-05-07T19:38:12.632Z,51.90
2018-05-07T19:40:40.066Z,51.80
2018-05-07T19:43:08.273Z,51.90
2018-05-07T19:45:35.693Z,51.80
2018-05-07T19:48:03.904Z,51.80
2018-05-07T19:50:31.331Z,51.70
2018-05-07T19:52:58.768Z,51.90
2018-05-07T19:55:26.984Z,51.90
2018-05-07T19:57:54.407Z,51.90
2018-05-07T20:00:22.608Z,52.00
2018-05-07T20:02:50.034Z,51.90
2018-05-07T20:05:18.259Z,51.90
2018-05-07T20:07:45.690Z,51.90
2018-05-07T20:10:13.122Z,51.70
2018-05-07T20:12:41.377Z,51.90
2018-05-07T20:15:08.768Z,51.90
2018-05-07T20:17:36.987Z,52.10
2018-05-07T20:20:04.414Z,52.10
2018-05-07T20:22:31.902Z,52.10
2018-05-07T20:24:59.555Z,52.10
2018-05-07T20:27:27.130Z,52.00
2018-05-07T20:29:54.557Z,52.20
2018-05-07T20:32:21.986Z,52.30
2018-05-07T20:34:49.492Z,52.20
2018-05-07T20:37:16.942Z,52.00
2018-05-07T20:39:44.412Z,52.00
2018-05-07T20:42:11.962Z,52.20
2018-05-07T20:44:40.052Z,52.20
2018-05-07T20:47:07.648Z,52.20
2018-05-07T20:49:35.046Z,52.30
2018-05-07T20:52:02.518Z,52.40
2018-05-07T20:54:30.075Z,52.40
2018-05-07T20:56:57.522Z,52.30
2018-05-07T20:59:25.052Z,52.40
2018-05-07T21:01:52.415Z,52.50
2018-05-07T21:04:19.889Z,52.40
2018-05-07T21:06:47.346Z,52.40
2018-05-07T21:09:14.806Z,52.30
2018-05-07T21:11:42.366Z,52.60
2018-05-07T21:14:09.819Z,52.50
2018-05-07T21:16:37.279Z,52.60
2018-05-07T21:19:04.734Z,52.60
2018-05-07T21:21:32.170Z,52.60
2018-05-07T21:23:59.601Z,52.50
2018-05-07T21:26:27.800Z,52.70
2018-05-07T21:28:55.290Z,52.70
2018-05-07T21:31:22.838Z,52.60
2018-05-07T21:33:50.282Z,52.80
2018-05-07T21:36:17.750Z,52.80
2018-05-07T21:38:45.188Z,52.80
2018-05-07T21:41:12.614Z,52.80
2018-05-07T21:43:40.875Z,53.20
2018-05-07T21:46:08.276Z,53.20
2018-05-07T21:48:35.703Z,53.30
2018-05-07T21:51:03.931Z,53.30
2018-05-07T21:53:31.375Z,53.30
2018-05-07T21:55:58.841Z,53.10
2018-05-07T21:58:26.276Z,53.00
2018-05-07T22:00:53.718Z,53.20
2018-05-07T22:03:21.154Z,52.70
2018-05-07T22:05:49.364Z,53.40
2018-05-07T22:08:16.802Z,53.40
2018-05-07T22:10:44.234Z,53.40
2018-05-07T22:13:12.487Z,53.80
2018-05-07T22:15:39.942Z,53.60
2018-05-07T22:18:07.379Z,53.70
2018-05-07T22:20:34.852Z,54.20
2018-05-07T22:23:02.407Z,54.00
2018-05-07T22:25:29.843Z,54.10
2018-05-07T22:27:57.295Z,54.30
2018-05-07T22:30:24.723Z,54.60
2018-05-07T22:32:52.950Z,54.40
2018-05-07T22:35:20.377Z,54.30
2018-05-07T22:37:47.805Z,54.40
2018-05-07T22:40:16.002Z,54.50
2018-05-07T22:42:43.962Z,54.40
2018-05-07T22:45:12.152Z,54.60
2018-05-07T22:47:39.573Z,54.40
2018-05-07T22:50:07.811Z,55.10
2018-05-07T22:52:35.268Z,55.00
2018-05-07T22:55:08.127Z,55.00
2018-05-07T22:57:35.557Z,55.00
2018-05-07T23:00:03.757Z,54.90
2018-05-07T23:02:31.241Z,55.50
2018-05-07T23:04:58.678Z,54.80
2018-05-07T23:07:26.118Z,55.00
2018-05-07T23:09:53.549Z,55.10
2018-05-07T23:12:21.788Z,54.90
2018-05-07T23:14:49.217Z,54.80
2018-05-07T23:17:16.667Z,55.00
2018-05-07T23:19:44.097Z,55.20
2018-05-07T23:22:13.149Z,55.10
2018-05-07T23:24:40.590Z,55.00
2018-05-07T23:27:08.057Z,55.50
2018-05-07T23:29:35.514Z,55.60
2018-05-07T23:32:03.080Z,55.30
2018-05-07T23:34:30.533Z,55.20
2018-05-07T23:36:57.986Z,55.20
2018-05-07T23:39:26.179Z,55.10
2018-05-07T23:41:54.378Z,55.30
2018-05-07T23:44:23.435Z,55.50
2018-05-07T23:46:50.868Z,55.50
2018-05-07T23:49:18.302Z,55.60
2018-05-07T23:51:45.830Z,55.50
2018-05-07T23:54:13.337Z,55.40
2018-05-07T23:56:40.768Z,55.50
2018-05-07T23:59:08.990Z,55.30
